Time;durP1;ratioP1;P1;durP2;ratioP2;P2;SDS_P1;SDS_P2;PMS_P1;PMS_P2;Temp;Humidity;BMP_temperature;BMP_pressure;BME280_temperature;BME280_humidity;BME280_pressure;Samples;Min_cycle;Max_cycle;Signal;HPM_P1;HPM_P2
2022/06/23 00:02:24;;;;;;;0.40;0.20;;;17.90;99.90;;;;;;5069852;28;20419;-64
2022/06/23 00:04:53;;;;;;;0.40;0.30;;;17.90;99.90;;;;;;5068914;28;20396;-64
2022/06/23 00:07:32;;;;;;;0.40;0.20;;;17.80;99.90;;;;;;5069495;28;20391;-64
2022/06/23 00:10:00;;;;;;;0.50;0.50;;;17.80;99.90;;;;;;5069397;28;20418;-63
2022/06/23 00:12:29;;;;;;;0.40;0.20;;;17.80;99.90;;;;;;5068944;28;20433;-63
2022/06/23 00:15:06;;;;;;;0.40;0.20;;;17.70;99.90;;;;;;5072872;28;20404;-63
2022/06/23 00:17:44;;;;;;;0.40;0.30;;;17.80;99.90;;;;;;5071281;28;20396;-63
2022/06/23 00:20:14;;;;;;;0.50;0.50;;;17.70;99.90;;;;;;5072095;28;20392;-64
2022/06/23 00:22:44;;;;;;;0.40;0.30;;;17.60;99.90;;;;;;5071233;28;20871;-63
2022/06/23 00:25:27;;;;;;;0.70;0.70;;;17.70;99.90;;;;;;5072610;28;20856;-63
2022/06/23 00:27:53;;;;;;;0.40;0.30;;;17.70;99.90;;;;;;5064918;28;20809;-63
2022/06/23 00:30:41;;;;;;;0.40;0.30;;;17.70;99.90;;;;;;5072803;28;20383;-63
2022/06/23 00:33:22;;;;;;;0.40;0.27;;;17.80;99.90;;;;;;5071855;28;20443;-64
2022/06/23 00:35:50;;;;;;;0.40;0.20;;;17.70;99.90;;;;;;5055693;28;20383;-63
2022/06/23 00:38:23;;;;;;;0.40;0.20;;;17.70;99.90;;;;;;5072825;28;20377;-64
2022/06/23 00:40:49;;;;;;;0.40;0.30;;;17.70;99.90;;;;;;5072046;28;20529;-64
2022/06/23 00:43:17;;;;;;;0.40;0.20;;;17.80;99.90;;;;;;5072825;28;20482;-63
2022/06/23 00:45:48;;;;;;;0.40;0.20;;;17.70;99.90;;;;;;5067887;28;20747;-64
2022/06/23 00:48:26;;;;;;;0.40;0.30;;;17.80;99.90;;;;;;5072576;28;20734;-63
2022/06/23 00:51:07;;;;;;;0.40;0.25;;;17.70;99.90;;;;;;5071963;28;20400;-64
2022/06/23 00:53:55;;;;;;;0.60;0.60;;;17.70;99.90;;;;;;5088331;28;20412;-63
2022/06/23 00:56:32;;;;;;;0.40;0.30;;;17.80;99.90;;;;;;5060466;28;20480;-63
2022/06/23 00:59:09;;;;;;;0.40;0.22;;;17.70;99.90;;;;;;5072024;28;20395;-64
2022/06/23 01:01:35;;;;;;;0.40;0.40;;;17.70;99.90;;;;;;5071611;28;20483;-64
2022/06/23 01:04:17;;;;;;;0.70;0.60;;;17.60;99.90;;;;;;5071596;28;20491;-63
2022/06/23 01:07:07;;;;;;;0.40;0.30;;;17.60;99.90;;;;;;5071143;28;20435;-64
2022/06/23 01:09:44;;;;;;;0.40;0.20;;;17.60;99.90;;;;;;5070844;28;20887;-64
2022/06/23 01:12:31;;;;;;;0.40;0.20;;;17.70;99.90;;;;;;5072270;28;20751;-64
2022/06/23 01:15:05;;;;;;;0.40;0.20;;;17.70;99.90;;;;;;5062027;28;20401;-63
2022/06/23 01:17:40;;;;;;;0.40;0.30;;;17.60;99.90;;;;;;5065395;28;20394;-63
2022/06/23 01:20:12;;;;;;;0.40;0.20;;;17.50;99.90;;;;;;5071281;28;20513;-64
2022/06/23 01:22:50;;;;;;;0.63;0.52;;;17.50;99.90;;;;;;5070452;28;20483;-64
2022/06/23 01:25:18;;;;;;;0.40;0.30;;;17.50;99.90;;;;;;5071166;28;20517;-64
2022/06/23 01:27:44;;;;;;;1.30;1.20;;;17.40;99.90;;;;;;5070737;28;20400;-63
2022/06/23 01:30:11;;;;;;;0.40;0.20;;;17.50;99.90;;;;;;5071674;28;20429;-63
2022/06/23 01:33:20;;;;;;;0.40;0.30;;;17.40;99.90;;;;;;5069967;28;20543;-63
2022/06/23 01:35:52;;;;;;;0.40;0.30;;;17.30;99.90;;;;;;5064814;28;20439;-63
2022/06/23 01:38:45;;;;;;;0.40;0.20;;;17.30;99.90;;;;;;5071035;28;20426;-64
2022/06/23 01:41:27;;;;;;;0.50;0.37;;;17.30;99.90;;;;;;5071133;28;20510;-64
2022/06/23 01:44:08;;;;;;;0.40;0.30;;;17.30;99.90;;;;;;5070350;28;20879;-63
2022/06/23 01:46:36;;;;;;;0.40;0.30;;;17.30;99.90;;;;;;5070331;28;20414;-64
2022/06/23 01:49:18;;;;;;;1.40;1.30;;;17.20;99.90;;;;;;5071165;28;20445;-63
2022/06/23 01:51:53;;;;;;;0.40;0.30;;;17.20;99.90;;;;;;5073777;28;20472;-63
2022/06/23 01:54:26;;;;;;;0.60;0.60;;;17.20;99.90;;;;;;5071305;28;20396;-64
2022/06/23 01:56:55;;;;;;;0.40;0.30;;;17.10;99.90;;;;;;5070160;28;20549;-64
2022/06/23 01:59:54;;;;;;;0.40;0.30;;;17.10;99.90;;;;;;5071036;28;20390;-63
2022/06/23 02:02:58;;;;;;;0.40;0.30;;;17.00;99.90;;;;;;5070672;28;20518;-63
2022/06/23 02:06:00;;;;;;;0.40;0.20;;;17.00;99.90;;;;;;5070846;28;20463;-63
2022/06/23 02:08:52;;;;;;;0.40;0.20;;;16.90;99.90;;;;;;5070814;28;20911;-64
2022/06/23 02:11:29;;;;;;;0.40;0.20;;;17.00;99.90;;;;;;5070803;28;20480;-63
2022/06/23 02:14:13;;;;;;;0.50;0.50;;;17.00;99.90;;;;;;5070238;28;20408;-63
2022/06/23 02:16:40;;;;;;;0.90;0.90;;;17.00;99.90;;;;;;5060667;28;20756;-64
2022/06/23 02:19:29;;;;;;;0.40;0.20;;;16.90;99.90;;;;;;5070865;28;20866;-64
2022/06/23 02:22:10;;;;;;;0.40;0.20;;;17.00;99.90;;;;;;5069906;28;20420;-63
2022/06/23 02:24:51;;;;;;;0.40;0.30;;;17.00;99.90;;;;;;5051611;28;20399;-63
2022/06/23 02:27:32;;;;;;;0.40;0.20;;;17.00;99.90;;;;;;5070846;28;20392;-64
2022/06/23 02:30:39;;;;;;;0.40;0.30;;;17.10;99.90;;;;;;5070138;28;20400;-63
2022/06/23 02:33:25;;;;;;;0.40;0.20;;;17.00;99.90;;;;;;5010966;28;20412;-63
2022/06/23 02:36:02;;;;;;;0.70;0.70;;;17.00;99.90;;;;;;5026993;28;21298;-63
2022/06/23 02:38:35;;;;;;;0.40;0.20;;;17.10;99.90;;;;;;5047686;28;20415;-64
2022/06/23 02:41:36;;;;;;;0.40;0.20;;;17.10;99.90;;;;;;5070222;28;20440;-63
2022/06/23 02:44:44;;;;;;;0.40;0.30;;;17.10;99.90;;;;;;5070504;28;20387;-63
2022/06/23 02:47:19;;;;;;;0.40;0.20;;;17.10;99.90;;;;;;5065060;28;20847;-63
2022/06/23 02:50:13;;;;;;;0.40;0.30;;;17.10;99.90;;;;;;5069365;28;20879;-63
2022/06/23 02:52:59;;;;;;;0.40;0.30;;;17.10;99.90;;;;;;5069466;28;20392;-63
2022/06/23 02:55:36;;;;;;;0.40;0.20;;;17.20;99.90;;;;;;5069861;28;20418;-63
2022/06/23 02:58:13;;;;;;;0.70;0.70;;;17.20;99.90;;;;;;5070016;28;20490;-63
2022/06/23 03:00:57;;;;;;;0.40;0.20;;;17.20;99.90;;;;;;5069255;28;20407;-63
2022/06/23 03:03:27;;;;;;;0.40;0.20;;;17.30;99.90;;;;;;5069757;28;20904;-63
2022/06/23 03:06:24;;;;;;;0.40;0.30;;;17.30;99.90;;;;;;5069026;28;20474;-63
2022/06/23 03:08:57;;;;;;;0.40;0.20;;;17.20;99.90;;;;;;5050679;28;20391;-63
2022/06/23 03:12:07;;;;;;;0.40;0.20;;;17.20;99.90;;;;;;5069781;28;20402;-63
2022/06/23 03:14:51;;;;;;;0.40;0.30;;;17.20;99.90;;;;;;5030654;28;20396;-64
2022/06/23 03:17:25;;;;;;;0.40;0.20;;;17.30;99.90;;;;;;5061251;28;20386;-64
2022/06/23 03:20:27;;;;;;;0.40;0.40;;;17.20;99.90;;;;;;5069269;28;20787;-64
2022/06/23 03:23:00;;;;;;;1.10;1.00;;;17.10;99.90;;;;;;5047940;28;20690;-63
2022/06/23 03:26:02;;;;;;;0.40;0.30;;;17.10;99.90;;;;;;5052210;28;20403;-64
2022/06/23 03:29:06;;;;;;;0.40;0.20;;;17.10;99.90;;;;;;5069861;28;20441;-63
2022/06/23 03:32:02;;;;;;;0.70;0.70;;;17.10;99.90;;;;;;5048407;28;20400;-64
2022/06/23 03:34:30;;;;;;;0.40;0.20;;;17.10;99.90;;;;;;5070513;28;20406;-64
2022/06/23 03:37:05;;;;;;;1.30;0.70;;;17.20;99.90;;;;;;5068193;28;20765;-64
2022/06/23 03:42:27;;;;;;;0.40;0.20;;;17.30;99.90;;;;;;5069149;28;20530;-64
2022/06/23 03:44:56;;;;;;;0.40;0.20;;;17.30;99.90;;;;;;5053453;28;20471;-63
2022/06/23 03:47:25;;;;;;;0.40;0.30;;;17.30;99.90;;;;;;5069875;28;20396;-63
2022/06/23 03:50:06;;;;;;;0.40;0.20;;;17.40;99.90;;;;;;5072724;28;20387;-64
2022/06/23 03:52:42;;;;;;;0.40;0.20;;;17.40;99.90;;;;;;5063872;28;20423;-63
2022/06/23 03:55:16;;;;;;;0.40;0.20;;;17.40;99.90;;;;;;5073772;28;20391;-64
2022/06/23 03:58:20;;;;;;;0.40;0.40;;;17.40;99.90;;;;;;5072715;28;20423;-63
2022/06/23 04:00:56;;;;;;;0.40;0.20;;;17.30;99.90;;;;;;5031903;28;20432;-63
2022/06/23 04:03:29;;;;;;;0.50;0.50;;;17.30;99.90;;;;;;5072505;28;20492;-63
2022/06/23 04:05:54;;;;;;;1.00;1.00;;;17.30;99.90;;;;;;5071447;28;20445;-64
2022/06/23 04:08:23;;;;;;;0.40;0.30;;;17.30;99.90;;;;;;5071269;28;20490;-64
2022/06/23 04:10:52;;;;;;;0.40;0.30;;;17.40;99.90;;;;;;5072108;28;20466;-64
2022/06/23 04:13:26;;;;;;;0.40;0.20;;;17.40;99.90;;;;;;5066557;28;20886;-63
2022/06/23 04:15:55;;;;;;;0.40;0.20;;;17.50;99.90;;;;;;5071695;28;20399;-64
2022/06/23 04:18:25;;;;;;;0.40;0.20;;;17.50;99.90;;;;;;5072830;28;20462;-63
2022/06/23 04:20:53;;;;;;;0.40;0.30;;;17.50;99.90;;;;;;5070751;28;20411;-64
2022/06/23 04:23:33;;;;;;;0.40;0.20;;;17.50;99.90;;;;;;5073363;28;20388;-64
2022/06/23 04:26:02;;;;;;;0.40;0.20;;;17.50;99.90;;;;;;5070979;28;20419;-63
2022/06/23 04:28:34;;;;;;;0.40;0.30;;;17.50;99.90;;;;;;5072383;28;20505;-64
2022/06/23 04:31:05;;;;;;;0.40;0.20;;;17.50;99.90;;;;;;5071174;28;20403;-63
2022/06/23 04:33:38;;;;;;;0.40;0.20;;;17.50;99.90;;;;;;5070088;28;20551;-64
2022/06/23 04:36:04;;;;;;;0.40;0.30;;;17.50;99.90;;;;;;5071168;28;20396;-64
2022/06/23 04:39:10;;;;;;;0.40;0.20;;;17.40;99.90;;;;;;5072674;28;20384;-64
2022/06/23 04:41:38;;;;;;;0.40;0.30;;;17.40;99.90;;;;;;5052398;28;20422;-63
2022/06/23 04:44:18;;;;;;;0.40;0.30;;;17.40;99.90;;;;;;5072547;28;20376;-63
2022/06/23 04:46:46;;;;;;;0.40;0.30;;;17.40;99.90;;;;;;5072319;28;20384;-63
2022/06/23 04:49:34;;;;;;;0.40;0.20;;;17.50;99.90;;;;;;5073071;28;20398;-63
2022/06/23 04:52:05;;;;;;;0.40;0.30;;;17.40;99.90;;;;;;5066153;28;20484;-64
2022/06/23 04:54:45;;;;;;;0.70;0.70;;;17.40;99.90;;;;;;5051610;28;20437;-64
2022/06/23 04:57:15;;;;;;;0.40;0.20;;;17.50;99.90;;;;;;5052943;28;20431;-64
2022/06/23 04:59:40;;;;;;;0.40;0.20;;;17.50;99.90;;;;;;5069216;28;20516;-64
2022/06/23 05:02:41;;;;;;;0.40;0.20;;;17.60;99.90;;;;;;5061071;28;20436;-64
2022/06/23 05:05:18;;;;;;;0.40;0.30;;;17.70;99.90;;;;;;5054753;28;20397;-65
2022/06/23 05:07:49;;;;;;;0.40;0.20;;;17.70;99.90;;;;;;5058099;28;20460;-65
2022/06/23 05:10:20;;;;;;;0.60;0.60;;;17.70;99.90;;;;;;5061956;28;20388;-65
2022/06/23 05:12:58;;;;;;;0.40;0.20;;;17.90;99.90;;;;;;5070468;28;21021;-65
2022/06/23 05:15:43;;;;;;;0.40;0.20;;;18.00;99.90;;;;;;5068946;28;20445;-65
2022/06/23 05:18:20;;;;;;;0.40;0.22;;;18.00;99.90;;;;;;5067188;28;20398;-65
2022/06/23 05:20:58;;;;;;;0.90;0.90;;;18.10;99.90;;;;;;5061980;28;20420;-65
2022/06/23 05:23:41;;;;;;;0.40;0.22;;;18.30;99.90;;;;;;5066853;28;20845;-66
2022/06/23 05:26:32;;;;;;;0.80;0.50;;;18.30;99.90;;;;;;5069805;28;20404;-66
2022/06/23 05:29:04;;;;;;;0.40;0.30;;;18.40;99.90;;;;;;5070278;28;20449;-65
2022/06/23 05:31:35;;;;;;;0.40;0.30;;;18.40;99.90;;;;;;5071186;28;20411;-65
2022/06/23 05:34:24;;;;;;;0.40;0.20;;;18.50;99.90;;;;;;5071117;28;20453;-65
2022/06/23 05:37:21;;;;;;;0.40;0.30;;;18.60;99.90;;;;;;5070554;28;20396;-66
2022/06/23 05:40:02;;;;;;;1.20;1.10;;;18.80;99.90;;;;;;5049381;28;20486;-65
2022/06/23 05:42:30;;;;;;;0.40;0.30;;;18.80;99.90;;;;;;5069069;28;20419;-66
2022/06/23 05:45:00;;;;;;;0.40;0.20;;;18.80;99.90;;;;;;5053437;28;20401;-65
2022/06/23 05:47:29;;;;;;;0.40;0.20;;;18.80;99.90;;;;;;5051608;28;20481;-66
2022/06/23 05:49:59;;;;;;;0.40;0.20;;;18.90;99.90;;;;;;5053166;28;20493;-65
2022/06/23 05:52:56;;;;;;;0.40;0.20;;;19.00;99.90;;;;;;5058946;28;20800;-66
2022/06/23 05:55:39;;;;;;;0.40;0.20;;;19.10;99.90;;;;;;5042846;28;20406;-66
2022/06/23 05:58:05;;;;;;;0.40;0.20;;;19.30;99.90;;;;;;5042169;28;20399;-66
2022/06/23 06:00:55;;;;;;;0.40;0.20;;;19.30;99.90;;;;;;5061943;28;20401;-66
2022/06/23 06:03:31;;;;;;;0.40;0.28;;;19.40;99.90;;;;;;5061554;28;20902;-66
2022/06/23 06:06:01;;;;;;;0.40;0.20;;;19.30;99.90;;;;;;5064788;28;20399;-66
2022/06/23 06:08:31;;;;;;;0.40;0.30;;;19.40;99.90;;;;;;5059695;28;20396;-66
2022/06/23 06:11:00;;;;;;;0.40;0.30;;;19.40;99.90;;;;;;5068192;28;20406;-66
2022/06/23 06:13:35;;;;;;;0.40;0.20;;;19.60;99.90;;;;;;5064468;28;20373;-66
2022/06/23 06:16:04;;;;;;;0.40;0.30;;;19.80;99.90;;;;;;5068803;28;20891;-66
2022/06/23 06:18:32;;;;;;;0.40;0.30;;;19.90;99.90;;;;;;5070707;28;20431;-66
2022/06/23 06:21:03;;;;;;;0.40;0.20;;;19.90;99.90;;;;;;5070421;28;20484;-66
2022/06/23 06:23:44;;;;;;;0.40;0.30;;;19.90;99.90;;;;;;5071314;28;20759;-66
2022/06/23 06:26:16;;;;;;;0.40;0.30;;;20.00;99.90;;;;;;5070692;28;20375;-66
2022/06/23 06:28:42;;;;;;;0.40;0.30;;;20.10;99.90;;;;;;5055800;28;20484;-66
2022/06/23 06:31:16;;;;;;;0.60;0.60;;;20.20;99.90;;;;;;5050376;28;20393;-66
2022/06/23 06:33:48;;;;;;;0.40;0.20;;;20.20;99.90;;;;;;5053322;28;20421;-66
2022/06/23 06:36:40;;;;;;;0.40;0.20;;;20.30;99.90;;;;;;5063005;28;20917;-66
2022/06/23 06:39:18;;;;;;;0.40;0.20;;;20.30;99.90;;;;;;5068081;28;20465;-66
2022/06/23 06:41:51;;;;;;;0.40;0.30;;;20.50;99.90;;;;;;5064964;28;20494;-66
2022/06/23 06:44:18;;;;;;;0.40;0.30;;;20.60;99.90;;;;;;5064149;28;20404;-66
2022/06/23 06:46:45;;;;;;;0.40;0.20;;;20.50;99.90;;;;;;5070536;28;20399;-67
2022/06/23 06:49:20;;;;;;;0.60;0.60;;;20.70;99.90;;;;;;5070000;28;20467;-66
2022/06/23 06:51:47;;;;;;;0.40;0.30;;;20.70;99.90;;;;;;5070894;28;20421;-66
2022/06/23 06:54:27;;;;;;;0.40;0.30;;;20.80;99.90;;;;;;5070054;28;20409;-66
2022/06/23 06:57:01;;;;;;;0.40;0.30;;;20.90;99.90;;;;;;5070099;28;20404;-67
2022/06/23 06:59:46;;;;;;;0.40;0.20;;;21.00;99.90;;;;;;5070821;28;20379;-67
2022/06/23 07:02:21;;;;;;;0.40;0.30;;;21.40;99.90;;;;;;5070008;28;20650;-67
2022/06/23 07:05:15;;;;;;;6.30;1.10;;;21.30;99.90;;;;;;5070588;28;20388;-67
2022/06/23 07:07:46;;;;;;;0.80;0.50;;;21.20;99.90;;;;;;5050753;28;20757;-67
2022/06/23 07:10:36;;;;;;;0.40;0.20;;;21.20;99.90;;;;;;5070081;28;20390;-67
2022/06/23 07:13:13;;;;;;;0.40;0.20;;;21.40;99.90;;;;;;5069868;28;20406;-68
2022/06/23 07:15:48;;;;;;;0.40;0.20;;;21.50;99.90;;;;;;5052398;28;20388;-67
2022/06/23 07:18:25;;;;;;;0.40;0.20;;;21.60;99.90;;;;;;5069649;28;20449;-67
2022/06/23 07:21:12;;;;;;;0.40;0.20;;;22.10;99.90;;;;;;5069926;28;20947;-67
2022/06/23 07:23:55;;;;;;;0.40;0.30;;;22.20;99.90;;;;;;5072273;28;20380;-66
2022/06/23 07:27:02;;;;;;;0.40;0.20;;;22.20;99.90;;;;;;5074902;28;20379;-67
2022/06/23 07:29:31;;;;;;;0.40;0.20;;;22.10;99.90;;;;;;5074540;28;20917;-67
2022/06/23 07:32:27;;;;;;;0.40;0.20;;;22.20;99.90;;;;;;5073040;28;20447;-67
2022/06/23 07:35:07;;;;;;;0.40;0.30;;;22.20;99.90;;;;;;5074148;28;20403;-67
2022/06/23 07:37:47;;;;;;;0.40;0.30;;;22.20;99.90;;;;;;5057946;28;20801;-67
2022/06/23 07:40:16;;;;;;;0.80;0.80;;;22.20;99.90;;;;;;5064068;28;20443;-67
2022/06/23 07:43:01;;;;;;;0.63;0.60;;;22.50;99.90;;;;;;5070819;28;20403;-67
2022/06/23 07:45:44;;;;;;;0.40;0.30;;;22.70;99.90;;;;;;5072507;28;20415;-66
2022/06/23 07:48:10;;;;;;;0.40;0.30;;;22.80;99.90;;;;;;5072424;28;20371;-66
2022/06/23 07:50:35;;;;;;;0.80;0.80;;;22.80;99.90;;;;;;5073455;28;20403;-68
2022/06/23 07:53:01;;;;;;;0.40;0.20;;;23.00;99.90;;;;;;5073233;28;20411;-67
2022/06/23 07:55:38;;;;;;;0.40;0.30;;;23.00;99.90;;;;;;5073600;28;20391;-66
2022/06/23 07:58:04;;;;;;;0.40;0.20;;;22.90;99.90;;;;;;5073443;28;20462;-65
2022/06/23 08:00:31;;;;;;;0.40;0.30;;;23.00;99.90;;;;;;5073882;28;20467;-66
2022/06/23 08:03:01;;;;;;;0.40;0.20;;;23.10;99.90;;;;;;5065865;28;20441;-66
2022/06/23 08:05:38;;;;;;;0.90;0.80;;;23.30;99.90;;;;;;5060848;28;20380;-66
2022/06/23 08:08:07;;;;;;;0.40;0.20;;;23.30;99.90;;;;;;5053409;28;20392;-66
2022/06/23 08:10:33;;;;;;;0.40;0.20;;;23.40;99.90;;;;;;5053535;28;20393;-66
2022/06/23 08:13:14;;;;;;;0.40;0.30;;;23.40;99.90;;;;;;5052942;28;20435;-66
2022/06/23 08:18:47;;;;;;;0.40;0.30;;;23.30;99.90;;;;;;5070547;28;20406;-66
2022/06/23 08:21:26;;;;;;;0.40;0.30;;;23.30;99.90;;;;;;5072822;28;20404;-66
2022/06/23 08:24:05;;;;;;;0.40;0.30;;;23.40;99.90;;;;;;5073561;28;20382;-66
2022/06/23 08:26:32;;;;;;;0.40;0.20;;;23.50;99.90;;;;;;5073474;28;20455;-66
2022/06/23 08:29:02;;;;;;;0.40;0.30;;;23.50;99.90;;;;;;5072024;28;20467;-67
2022/06/23 08:31:29;;;;;;;0.50;0.40;;;23.90;99.90;;;;;;5072742;28;20509;-67
2022/06/23 08:33:57;;;;;;;0.40;0.30;;;24.00;99.90;;;;;;5071966;28;20899;-66
2022/06/23 08:36:29;;;;;;;0.50;0.50;;;24.10;99.90;;;;;;5061379;28;20476;-66
2022/06/23 08:39:01;;;;;;;0.40;0.30;;;23.80;99.90;;;;;;5052930;28;20382;-68
2022/06/23 08:41:56;;;;;;;0.70;0.70;;;23.80;99.90;;;;;;5071578;28;20415;-67
2022/06/23 08:44:41;;;;;;;0.40;0.20;;;23.90;99.90;;;;;;5072415;28;20396;-67
2022/06/23 08:47:18;;;;;;;0.40;0.40;;;24.00;99.90;;;;;;5070936;28;20411;-68
2022/06/23 08:50:05;;;;;;;0.40;0.20;;;24.10;99.90;;;;;;5058127;28;20387;-67
2022/06/23 08:52:46;;;;;;;0.50;0.40;;;24.00;99.90;;;;;;5070407;28;20487;-67
2022/06/23 08:55:24;;;;;;;0.52;0.52;;;23.90;99.90;;;;;;5065204;28;20399;-68
2022/06/23 08:57:58;;;;;;;1.00;0.80;;;23.90;99.90;;;;;;5071879;28;20399;-69
2022/06/23 09:00:40;;;;;;;0.50;0.50;;;24.00;99.90;;;;;;5072325;28;20400;-67
2022/06/23 09:03:43;;;;;;;0.40;0.40;;;24.00;99.90;;;;;;5071178;28;21001;-67
2022/06/23 09:06:39;;;;;;;0.40;0.40;;;24.00;99.90;;;;;;5063463;28;20391;-67
2022/06/23 09:09:24;;;;;;;0.47;0.40;;;24.00;99.90;;;;;;5071713;28;20427;-67
2022/06/23 09:12:27;;;;;;;0.40;0.20;;;24.10;99.90;;;;;;5063696;28;20412;-67
2022/06/23 09:15:11;;;;;;;0.40;0.30;;;24.20;99.90;;;;;;5071327;28;20395;-67
2022/06/23 09:17:49;;;;;;;0.40;0.40;;;24.30;99.90;;;;;;5072633;28;20470;-67
2022/06/23 09:20:30;;;;;;;0.70;0.70;;;24.30;99.90;;;;;;5071685;28;20384;-67
2022/06/23 09:23:20;;;;;;;0.40;0.20;;;24.30;99.90;;;;;;5072791;28;20380;-67
2022/06/23 09:26:16;;;;;;;0.40;0.30;;;24.20;99.90;;;;;;5072283;28;20857;-66
2022/06/23 09:28:42;;;;;;;0.40;0.25;;;24.30;99.90;;;;;;5072511;28;20843;-66
2022/06/23 09:31:20;;;;;;;0.40;0.30;;;24.30;99.90;;;;;;5071651;28;20416;-67
2022/06/23 09:34:04;;;;;;;0.40;0.30;;;24.50;99.90;;;;;;5071463;28;20443;-68
2022/06/23 09:36:44;;;;;;;0.40;0.40;;;24.60;99.90;;;;;;5071313;28;20891;-67
2022/06/23 09:39:29;;;;;;;0.40;0.20;;;24.90;99.90;;;;;;5070753;28;20486;-67
2022/06/23 09:42:42;;;;;;;4.20;0.90;;;24.90;99.90;;;;;;5072149;28;20454;-68
2022/06/23 09:45:23;;;;;;;0.40;0.40;;;24.90;99.90;;;;;;5070450;28;20438;-67
2022/06/23 09:48:25;;;;;;;0.40;0.30;;;24.80;99.90;;;;;;5071986;28;20383;-67
2022/06/23 09:51:15;;;;;;;0.40;0.30;;;24.80;99.90;;;;;;5071877;28;20441;-67
2022/06/23 09:54:08;;;;;;;0.40;0.23;;;24.90;99.90;;;;;;5091282;28;20389;-66
2022/06/23 09:56:42;;;;;;;0.40;0.20;;;24.90;99.90;;;;;;5091767;28;20374;-66
2022/06/23 09:59:39;;;;;;;0.40;0.30;;;24.90;99.90;;;;;;5091232;28;20420;-66
2022/06/23 10:02:52;;;;;;;0.40;0.20;;;25.00;99.90;;;;;;5090632;28;20487;-66
2022/06/23 10:05:57;;;;;;;0.40;0.20;;;25.20;99.90;;;;;;5090508;28;20865;-67
2022/06/23 10:08:48;;;;;;;0.40;0.20;;;25.60;99.90;;;;;;5091166;28;20389;-66
2022/06/23 10:11:29;;;;;;;0.40;0.20;;;25.30;99.90;;;;;;5090977;28;20726;-67
2022/06/23 10:13:55;;;;;;;0.40;0.30;;;25.50;99.90;;;;;;5091952;28;20680;-67
2022/06/23 10:16:26;;;;;;;0.40;0.30;;;25.40;99.90;;;;;;5090724;28;20377;-68
2022/06/23 10:19:16;;;;;;;0.40;0.20;;;25.60;99.90;;;;;;5068922;28;20399;-67
2022/06/23 10:22:13;;;;;;;0.40;0.30;;;25.60;99.90;;;;;;5070064;28;20415;-67
2022/06/23 10:25:19;;;;;;;0.40;0.20;;;25.70;99.90;;;;;;5064889;28;20396;-66
2022/06/23 10:28:07;;;;;;;0.40;0.20;;;25.70;99.90;;;;;;5069505;28;20485;-67
2022/06/23 10:30:53;;;;;;;0.40;0.40;;;25.80;99.90;;;;;;5070426;28;20403;-69
2022/06/23 10:33:47;;;;;;;0.40;0.40;;;26.00;99.90;;;;;;5069076;28;20430;-66
2022/06/23 10:36:31;;;;;;;0.40;0.30;;;25.80;99.90;;;;;;5068931;28;20434;-67
2022/06/23 10:39:27;;;;;;;0.40;0.40;;;25.90;99.90;;;;;;5071697;28;20402;-68
2022/06/23 10:42:10;;;;;;;0.40;0.30;;;26.10;99.90;;;;;;5063324;28;20490;-67
2022/06/23 10:45:14;;;;;;;0.40;0.30;;;26.30;99.90;;;;;;5070932;28;20406;-67
2022/06/23 10:48:27;;;;;;;0.40;0.20;;;26.40;99.90;;;;;;5049560;28;20834;-67
2022/06/23 10:51:42;;;;;;;0.40;0.20;;;26.50;99.90;;;;;;5051766;28;20399;-66
2022/06/23 10:54:43;;;;;;;0.40;0.28;;;26.60;99.90;;;;;;5026332;28;20449;-66
2022/06/23 10:57:14;;;;;;;0.40;0.30;;;26.40;99.90;;;;;;5027531;28;20383;-67
2022/06/23 11:00:17;;;;;;;0.40;0.30;;;26.70;99.90;;;;;;5059238;28;20395;-68
2022/06/23 11:03:20;;;;;;;1.00;0.90;;;26.70;99.90;;;;;;5070363;28;20954;-67
2022/06/23 11:06:04;;;;;;;0.40;0.30;;;26.80;99.90;;;;;;5070938;28;20473;-67
2022/06/23 11:08:32;;;;;;;0.70;0.70;;;26.80;99.90;;;;;;5070356;28;20868;-67
2022/06/23 11:11:32;;;;;;;0.40;0.30;;;27.10;99.90;;;;;;5064197;28;20385;-70
2022/06/23 11:13:58;;;;;;;1.60;0.80;;;27.10;99.90;;;;;;5068607;28;20748;-69
2022/06/23 11:16:29;;;;;;;0.40;0.20;;;27.20;99.90;;;;;;5069756;28;20382;-67
2022/06/23 11:19:21;;;;;;;0.40;0.20;;;27.30;99.90;;;;;;5070525;28;20487;-66
2022/06/23 11:21:59;;;;;;;0.40;0.30;;;27.40;99.90;;;;;;5069824;28;20907;-67
2022/06/23 11:24:24;;;;;;;0.40;0.30;;;27.50;99.90;;;;;;5069232;28;21018;-67
2022/06/23 11:26:50;;;;;;;0.40;0.30;;;27.40;99.90;;;;;;5069809;28;20391;-67
2022/06/23 11:29:15;;;;;;;0.40;0.30;;;27.90;99.90;;;;;;5069640;28;20380;-67
2022/06/23 11:32:03;;;;;;;0.40;0.30;;;27.90;99.90;;;;;;5069340;28;20402;-66
2022/06/23 11:35:14;;;;;;;0.40;0.30;;;28.10;99.80;;;;;;5069362;28;20396;-67
2022/06/23 11:37:55;;;;;;;0.40;0.30;;;28.30;99.70;;;;;;5065082;28;20469;-69
2022/06/23 11:40:58;;;;;;;0.40;0.20;;;28.50;97.30;;;;;;5064798;28;20390;-67
2022/06/23 11:43:42;;;;;;;0.40;0.20;;;28.70;96.70;;;;;;5067188;28;20411;-67
2022/06/23 11:46:10;;;;;;;0.60;0.50;;;29.60;95.40;;;;;;5069446;28;20434;-67
2022/06/23 11:49:02;;;;;;;1.30;0.60;;;30.60;91.90;;;;;;5069547;28;20828;-69
2022/06/23 11:51:52;;;;;;;0.40;0.20;;;31.20;88.80;;;;;;5070015;28;20387;-67
2022/06/23 11:54:45;;;;;;;0.40;0.20;;;31.00;86.90;;;;;;5071428;28;20387;-67
2022/06/23 11:57:47;;;;;;;0.40;0.30;;;31.40;88.40;;;;;;5068774;28;20486;-69
2022/06/23 12:00:31;;;;;;;0.40;0.20;;;31.90;82.20;;;;;;5067042;28;20461;-67
2022/06/23 12:03:21;;;;;;;0.40;0.30;;;32.10;78.90;;;;;;5070266;28;20419;-66
2022/06/23 12:06:20;;;;;;;0.40;0.20;;;32.30;84.10;;;;;;5070262;28;20388;-67
2022/06/23 12:08:55;;;;;;;0.40;0.40;;;32.50;79.50;;;;;;5070196;28;20380;-69
2022/06/23 12:11:22;;;;;;;0.40;0.20;;;32.20;77.00;;;;;;5072704;28;20711;-67
2022/06/23 12:13:48;;;;;;;0.40;0.20;;;32.30;79.90;;;;;;5073880;28;20443;-67
2022/06/23 12:16:13;;;;;;;0.40;0.20;;;32.00;83.40;;;;;;5072782;28;20390;-67
2022/06/23 12:19:05;;;;;;;0.40;0.20;;;32.20;76.30;;;;;;5073608;28;20384;-67
2022/06/23 12:21:40;;;;;;;0.40;0.40;;;32.50;80.80;;;;;;5072536;28;20403;-67
2022/06/23 12:24:22;;;;;;;0.40;0.20;;;32.70;76.50;;;;;;5073375;28;20868;-67
2022/06/23 12:27:13;;;;;;;0.40;0.20;;;32.80;76.60;;;;;;5073812;28;20372;-67
2022/06/23 12:29:49;;;;;;;0.40;0.20;;;33.00;74.60;;;;;;5073581;28;20376;-67
2022/06/23 12:32:36;;;;;;;0.40;0.20;;;31.90;76.50;;;;;;5072399;28;20412;-68
2022/06/23 12:35:10;;;;;;;0.40;0.40;;;31.60;74.70;;;;;;5073501;28;20386;-67
2022/06/23 12:38:24;;;;;;;0.40;0.20;;;31.50;76.30;;;;;;5072256;28;20384;-67
2022/06/23 12:41:06;;;;;;;0.40;0.20;;;32.60;81.00;;;;;;5045831;28;20430;-68
2022/06/23 12:43:58;;;;;;;0.40;0.20;;;32.70;76.70;;;;;;5072391;28;20395;-67
2022/06/23 12:46:51;;;;;;;0.40;0.20;;;32.80;79.20;;;;;;5072520;28;20375;-68
2022/06/23 12:49:54;;;;;;;0.60;0.57;;;32.20;74.70;;;;;;5071821;28;20464;-67
2022/06/23 12:52:42;;;;;;;0.40;0.20;;;31.00;77.70;;;;;;5071547;28;20387;-67
2022/06/23 12:55:43;;;;;;;0.40;0.20;;;31.70;79.10;;;;;;5073048;28;20380;-67
2022/06/23 12:58:38;;;;;;;0.40;0.20;;;32.00;79.40;;;;;;5072612;28;20394;-67
2022/06/23 13:01:20;;;;;;;0.40;0.20;;;31.60;76.00;;;;;;5072957;28;20545;-67
2022/06/23 13:03:51;;;;;;;0.40;0.20;;;30.70;82.30;;;;;;5073067;28;20422;-67
2022/06/23 13:06:35;;;;;;;0.40;0.30;;;31.20;81.50;;;;;;5072489;28;20388;-68
2022/06/23 13:09:03;;;;;;;0.40;0.20;;;31.30;79.60;;;;;;5072733;28;20448;-67
2022/06/23 13:12:12;;;;;;;0.40;0.20;;;31.40;80.00;;;;;;5071932;28;20388;-67
2022/06/23 13:14:53;;;;;;;0.40;0.30;;;30.40;83.60;;;;;;5071817;28;20430;-67
2022/06/23 13:17:43;;;;;;;0.40;0.30;;;31.60;82.00;;;;;;5071768;28;20384;-67
2022/06/23 13:20:22;;;;;;;0.40;0.30;;;30.60;86.80;;;;;;5072300;28;20415;-67
2022/06/23 13:22:58;;;;;;;0.40;0.20;;;31.40;87.00;;;;;;5072199;28;20407;-67
2022/06/23 13:25:32;;;;;;;0.40;0.20;;;31.00;82.90;;;;;;5071733;28;20375;-67
2022/06/23 13:27:58;;;;;;;0.40;0.20;;;32.10;79.30;;;;;;5072447;28;20384;-67
2022/06/23 13:30:27;;;;;;;0.40;0.20;;;32.30;77.60;;;;;;5071406;28;20433;-67
2022/06/23 13:33:11;;;;;;;0.40;0.28;;;32.00;79.00;;;;;;5071742;28;20457;-67
2022/06/23 13:35:47;;;;;;;0.40;0.20;;;31.80;79.70;;;;;;5071629;28;20395;-67
2022/06/23 13:38:29;;;;;;;0.40;0.20;;;31.70;80.40;;;;;;5071817;28;20812;-67
2022/06/23 13:41:20;;;;;;;0.40;0.28;;;31.70;76.20;;;;;;5072113;28;20504;-67
2022/06/23 13:43:56;;;;;;;0.40;0.20;;;32.20;76.80;;;;;;5072072;28;20390;-69
2022/06/23 13:46:50;;;;;;;0.40;0.20;;;30.90;78.20;;;;;;5071236;28;20415;-67
2022/06/23 13:49:25;;;;;;;0.40;0.20;;;30.60;80.50;;;;;;5069895;28;20399;-67
2022/06/23 13:51:58;;;;;;;0.40;0.20;;;31.20;80.10;;;;;;5071837;28;20478;-66
2022/06/23 13:54:28;;;;;;;0.40;0.20;;;31.10;78.60;;;;;;5071048;28;20438;-67
2022/06/23 13:56:56;;;;;;;0.40;0.20;;;31.60;76.50;;;;;;5071875;28;20791;-67
2022/06/23 13:59:51;;;;;;;0.60;0.50;;;31.30;80.60;;;;;;5070289;28;20871;-66
2022/06/23 14:02:30;;;;;;;0.50;0.40;;;31.70;78.20;;;;;;5062754;28;20486;-67
2022/06/23 14:05:09;;;;;;;0.80;0.80;;;31.30;76.30;;;;;;5051474;28;20525;-67